sensor_id;sensor_type;location;lat;lon;timestamp;temperature;humidity
19924;DHT22;10124;53.068;18.224;2023-01-28T00:02:14;-1.40;1.00
19924;DHT22;10124;53.068;18.224;2023-01-28T00:04:43;-1.50;1.00
19924;DHT22;10124;53.068;18.224;2023-01-28T00:07:11;-1.40;1.00
19924;DHT22;10124;53.068;18.224;2023-01-28T00:09:39;-1.40;1.00
19924;DHT22;10124;53.068;18.224;2023-01-28T00:12:06;-1.40;1.00
19924;DHT22;10124;53.068;18.224;2023-01-28T00:14:34;-1.40;1.00
19924;DHT22;10124;53.068;18.224;2023-01-28T00:17:04;-1.40;1.00
19924;DHT22;10124;53.068;18.224;2023-01-28T00:19:32;-1.50;1.00
19924;DHT22;10124;53.068;18.224;2023-01-28T00:22:00;-1.50;1.00
19924;DHT22;10124;53.068;18.224;2023-01-28T00:24:28;-1.40;1.00
19924;DHT22;10124;53.068;18.224;2023-01-28T00:26:55;-1.40;1.00
19924;DHT22;10124;53.068;18.224;2023-01-28T00:29:23;-1.50;1.00
19924;DHT22;10124;53.068;18.224;2023-01-28T00:31:51;-1.50;1.00
19924;DHT22;10124;53.068;18.224;2023-01-28T00:34:18;-1.40;1.00
19924;DHT22;10124;53.068;18.224;2023-01-28T00:36:47;0.70;1.00
19924;DHT22;10124;53.068;18.224;2023-01-28T00:39:24;-1.40;1.00
19924;DHT22;10124;53.068;18.224;2023-01-28T00:41:52;-1.30;1.00
19924;DHT22;10124;53.068;18.224;2023-01-28T00:44:24;-1.40;1.00
19924;DHT22;10124;53.068;18.224;2023-01-28T00:46:51;-1.40;1.00
19924;DHT22;10124;53.068;18.224;2023-01-28T00:49:21;-1.40;1.00
19924;DHT22;10124;53.068;18.224;2023-01-28T00:51:49;-1.40;1.00
19924;DHT22;10124;53.068;18.224;2023-01-28T00:54:16;-1.30;1.00
19924;DHT22;10124;53.068;18.224;2023-01-28T00:56:44;0.20;1.00
19924;DHT22;10124;53.068;18.224;2023-01-28T00:59:12;-1.40;1.00
19924;DHT22;10124;53.068;18.224;2023-01-28T01:01:40;-1.40;1.00
19924;DHT22;10124;53.068;18.224;2023-01-28T01:04:07;-1.50;1.00
19924;DHT22;10124;53.068;18.224;2023-01-28T01:06:37;-1.40;1.00
19924;DHT22;10124;53.068;18.224;2023-01-28T01:09:07;-1.40;1.00
19924;DHT22;10124;53.068;18.224;2023-01-28T01:11:35;-1.50;1.00
19924;DHT22;10124;53.068;18.224;2023-01-28T01:14:03;-1.50;1.00
19924;DHT22;10124;53.068;18.224;2023-01-28T01:16:33;-1.40;1.00
19924;DHT22;10124;53.068;18.224;2023-01-28T01:19:02;-1.40;1.00
19924;DHT22;10124;53.068;18.224;2023-01-28T01:21:30;-1.40;1.00
19924;DHT22;10124;53.068;18.224;2023-01-28T01:23:57;-1.40;1.00
19924;DHT22;10124;53.068;18.224;2023-01-28T01:26:25;-1.40;1.00
19924;DHT22;10124;53.068;18.224;2023-01-28T01:28:57;-1.40;1.00
19924;DHT22;10124;53.068;18.224;2023-01-28T01:31:24;-1.40;1.00
19924;DHT22;10124;53.068;18.224;2023-01-28T01:33:52;-1.40;1.00
19924;DHT22;10124;53.068;18.224;2023-01-28T01:36:20;-1.40;1.00
19924;DHT22;10124;53.068;18.224;2023-01-28T01:38:53;-1.40;1.00
19924;DHT22;10124;53.068;18.224;2023-01-28T01:41:29;-1.40;1.00
19924;DHT22;10124;53.068;18.224;2023-01-28T01:43:59;-1.40;1.00
19924;DHT22;10124;53.068;18.224;2023-01-28T01:46:43;-1.50;1.00
19924;DHT22;10124;53.068;18.224;2023-01-28T01:49:26;-1.50;1.00
19924;DHT22;10124;53.068;18.224;2023-01-28T01:52:04;-1.30;1.00
19924;DHT22;10124;53.068;18.224;2023-01-28T01:54:36;-1.40;1.00
19924;DHT22;10124;53.068;18.224;2023-01-28T01:57:08;-1.40;1.00
19924;DHT22;10124;53.068;18.224;2023-01-28T01:59:37;-1.40;1.00
19924;DHT22;10124;53.068;18.224;2023-01-28T02:02:07;0.00;1.00
19924;DHT22;10124;53.068;18.224;2023-01-28T02:04:42;1.20;1.00
19924;DHT22;10124;53.068;18.224;2023-01-28T02:07:17;-1.40;1.00
19924;DHT22;10124;53.068;18.224;2023-01-28T02:09:46;-1.40;1.00
19924;DHT22;10124;53.068;18.224;2023-01-28T02:12:17;-1.20;1.00
19924;DHT22;10124;53.068;18.224;2023-01-28T02:14:52;-1.40;1.00
19924;DHT22;10124;53.068;18.224;2023-01-28T02:17:20;-1.40;1.00
19924;DHT22;10124;53.068;18.224;2023-01-28T02:19:58;-1.40;1.00
19924;DHT22;10124;53.068;18.224;2023-01-28T02:25:33;-1.40;1.00
19924;DHT22;10124;53.068;18.224;2023-01-28T02:30:39;-1.40;1.00
19924;DHT22;10124;53.068;18.224;2023-01-28T02:33:13;-1.40;1.00
19924;DHT22;10124;53.068;18.224;2023-01-28T02:35:51;-1.40;1.00
19924;DHT22;10124;53.068;18.224;2023-01-28T02:38:32;0.50;1.00
19924;DHT22;10124;53.068;18.224;2023-01-28T02:41:05;-1.30;1.00
19924;DHT22;10124;53.068;18.224;2023-01-28T02:43:46;-1.40;1.00
19924;DHT22;10124;53.068;18.224;2023-01-28T02:46:33;-1.40;1.00
19924;DHT22;10124;53.068;18.224;2023-01-28T02:49:48;-1.30;1.00
19924;DHT22;10124;53.068;18.224;2023-01-28T03:00:26;-1.30;1.00
19924;DHT22;10124;53.068;18.224;2023-01-28T03:03:55;-0.40;1.00
19924;DHT22;10124;53.068;18.224;2023-01-28T03:05:56;-1.30;1.00
19924;DHT22;10124;53.068;18.224;2023-01-28T03:08:58;0.80;1.00
19924;DHT22;10124;53.068;18.224;2023-01-28T03:11:57;-1.40;1.00
19924;DHT22;10124;53.068;18.224;2023-01-28T03:14:49;-1.30;1.00
19924;DHT22;10124;53.068;18.224;2023-01-28T03:17:51;-1.30;1.00
19924;DHT22;10124;53.068;18.224;2023-01-28T03:23:38;-1.30;1.00
19924;DHT22;10124;53.068;18.224;2023-01-28T03:26:28;-1.30;1.00
19924;DHT22;10124;53.068;18.224;2023-01-28T03:29:17;-1.30;1.00
19924;DHT22;10124;53.068;18.224;2023-01-28T03:32:06;-1.30;1.00
19924;DHT22;10124;53.068;18.224;2023-01-28T03:34:52;0.00;1.00
19924;DHT22;10124;53.068;18.224;2023-01-28T03:37:39;0.30;1.00
19924;DHT22;10124;53.068;18.224;2023-01-28T03:40:16;-1.30;1.00
19924;DHT22;10124;53.068;18.224;2023-01-28T03:42:45;-1.40;1.00
19924;DHT22;10124;53.068;18.224;2023-01-28T03:45:35;0.90;1.00
19924;DHT22;10124;53.068;18.224;2023-01-28T03:48:04;-1.30;1.00
19924;DHT22;10124;53.068;18.224;2023-01-28T03:50:32;-1.30;1.00
19924;DHT22;10124;53.068;18.224;2023-01-28T03:53:01;-1.30;1.00
19924;DHT22;10124;53.068;18.224;2023-01-28T03:55:49;-0.50;1.00
19924;DHT22;10124;53.068;18.224;2023-01-28T03:58:17;-1.40;1.00
19924;DHT22;10124;53.068;18.224;2023-01-28T04:00:46;-1.40;1.00
19924;DHT22;10124;53.068;18.224;2023-01-28T04:03:16;-1.30;1.00
19924;DHT22;10124;53.068;18.224;2023-01-28T04:06:00;-1.30;1.00
19924;DHT22;10124;53.068;18.224;2023-01-28T04:08:46;-1.30;1.00
19924;DHT22;10124;53.068;18.224;2023-01-28T04:11:41;-1.30;1.00
19924;DHT22;10124;53.068;18.224;2023-01-28T04:14:12;-1.30;1.00
19924;DHT22;10124;53.068;18.224;2023-01-28T04:17:03;-1.20;1.00
19924;DHT22;10124;53.068;18.224;2023-01-28T04:19:32;-1.30;1.00
19924;DHT22;10124;53.068;18.224;2023-01-28T04:22:06;-1.30;1.00
19924;DHT22;10124;53.068;18.224;2023-01-28T04:24:37;-1.30;1.00
19924;DHT22;10124;53.068;18.224;2023-01-28T04:27:04;-1.20;1.00
19924;DHT22;10124;53.068;18.224;2023-01-28T04:29:32;0.60;1.00
19924;DHT22;10124;53.068;18.224;2023-01-28T04:32:17;1.10;1.00
19924;DHT22;10124;53.068;18.224;2023-01-28T04:35:02;-1.20;1.00
19924;DHT22;10124;53.068;18.224;2023-01-28T04:37:48;-1.30;1.00
19924;DHT22;10124;53.068;18.224;2023-01-28T04:40:36;0.10;1.00
19924;DHT22;10124;53.068;18.224;2023-01-28T04:43:09;-1.30;1.00
19924;DHT22;10124;53.068;18.224;2023-01-28T04:46:06;-1.20;1.00
19924;DHT22;10124;53.068;18.224;2023-01-28T04:48:52;-1.20;1.00
19924;DHT22;10124;53.068;18.224;2023-01-28T04:51:59;-1.20;1.00
19924;DHT22;10124;53.068;18.224;2023-01-28T04:54:55;-1.20;1.00
19924;DHT22;10124;53.068;18.224;2023-01-28T04:57:23;-1.20;1.00
19924;DHT22;10124;53.068;18.224;2023-01-28T04:59:51;-1.20;1.00
19924;DHT22;10124;53.068;18.224;2023-01-28T05:02:18;-0.70;1.00
19924;DHT22;10124;53.068;18.224;2023-01-28T05:04:47;-1.20;1.00
19924;DHT22;10124;53.068;18.224;2023-01-28T05:07:32;-1.20;1.00
19924;DHT22;10124;53.068;18.224;2023-01-28T05:09:59;-1.20;1.00
19924;DHT22;10124;53.068;18.224;2023-01-28T05:12:27;-1.20;1.00
19924;DHT22;10124;53.068;18.224;2023-01-28T05:14:56;-0.60;1.00
19924;DHT22;10124;53.068;18.224;2023-01-28T05:17:25;-1.20;1.00
19924;DHT22;10124;53.068;18.224;2023-01-28T05:19:53;-1.20;1.00
19924;DHT22;10124;53.068;18.224;2023-01-28T05:22:24;-1.20;1.00
19924;DHT22;10124;53.068;18.224;2023-01-28T05:25:29;-1.20;1.00
19924;DHT22;10124;53.068;18.224;2023-01-28T05:27:57;-1.20;1.00
19924;DHT22;10124;53.068;18.224;2023-01-28T05:30:25;-1.20;1.00
19924;DHT22;10124;53.068;18.224;2023-01-28T05:32:56;-1.20;1.00
19924;DHT22;10124;53.068;18.224;2023-01-28T05:35:26;-1.20;1.00
19924;DHT22;10124;53.068;18.224;2023-01-28T05:37:56;-1.20;1.00
19924;DHT22;10124;53.068;18.224;2023-01-28T05:40:24;-1.20;1.00
19924;DHT22;10124;53.068;18.224;2023-01-28T05:42:52;-1.20;1.00
19924;DHT22;10124;53.068;18.224;2023-01-28T05:45:42;-1.20;1.00
19924;DHT22;10124;53.068;18.224;2023-01-28T05:48:21;-1.10;1.00
19924;DHT22;10124;53.068;18.224;2023-01-28T05:51:03;-1.20;1.00
19924;DHT22;10124;53.068;18.224;2023-01-28T05:53:37;-1.20;1.00
19924;DHT22;10124;53.068;18.224;2023-01-28T05:56:05;-0.50;1.00
19924;DHT22;10124;53.068;18.224;2023-01-28T05:58:34;-1.20;1.00
19924;DHT22;10124;53.068;18.224;2023-01-28T06:01:03;-1.20;1.00
19924;DHT22;10124;53.068;18.224;2023-01-28T06:03:41;-1.20;1.00
19924;DHT22;10124;53.068;18.224;2023-01-28T06:06:09;-1.20;1.00
19924;DHT22;10124;53.068;18.224;2023-01-28T06:08:37;-1.10;1.00
19924;DHT22;10124;53.068;18.224;2023-01-28T06:11:04;-1.10;1.00
19924;DHT22;10124;53.068;18.224;2023-01-28T06:13:33;-1.20;1.00
19924;DHT22;10124;53.068;18.224;2023-01-28T06:16:19;-1.20;1.00
19924;DHT22;10124;53.068;18.224;2023-01-28T06:19:10;-1.20;1.00
19924;DHT22;10124;53.068;18.224;2023-01-28T06:21:38;-1.20;1.00
19924;DHT22;10124;53.068;18.224;2023-01-28T06:24:06;-1.20;1.00
19924;DHT22;10124;53.068;18.224;2023-01-28T06:26:34;-1.20;1.00
19924;DHT22;10124;53.068;18.224;2023-01-28T06:29:01;-1.20;1.00
19924;DHT22;10124;53.068;18.224;2023-01-28T06:31:28;-1.10;1.00
19924;DHT22;10124;53.068;18.224;2023-01-28T06:33:56;-1.20;1.00
19924;DHT22;10124;53.068;18.224;2023-01-28T06:36:23;-1.20;1.00
19924;DHT22;10124;53.068;18.224;2023-01-28T06:38:51;-1.00;1.00
19924;DHT22;10124;53.068;18.224;2023-01-28T06:41:18;-1.20;1.00
19924;DHT22;10124;53.068;18.224;2023-01-28T06:43:46;-1.20;1.00
19924;DHT22;10124;53.068;18.224;2023-01-28T06:46:14;0.50;1.00
19924;DHT22;10124;53.068;18.224;2023-01-28T06:48:41;1.10;1.00
19924;DHT22;10124;53.068;18.224;2023-01-28T06:51:09;-1.20;1.00
19924;DHT22;10124;53.068;18.224;2023-01-28T06:53:39;-1.10;1.00
19924;DHT22;10124;53.068;18.224;2023-01-28T06:56:07;-1.10;1.00
19924;DHT22;10124;53.068;18.224;2023-01-28T06:58:35;-1.10;1.00
19924;DHT22;10124;53.068;18.224;2023-01-28T07:01:03;-1.10;1.00
19924;DHT22;10124;53.068;18.224;2023-01-28T07:03:31;-1.10;1.00
19924;DHT22;10124;53.068;18.224;2023-01-28T07:05:58;-1.10;1.00
19924;DHT22;10124;53.068;18.224;2023-01-28T07:08:27;-1.10;1.00
19924;DHT22;10124;53.068;18.224;2023-01-28T07:10:55;-1.00;1.00
19924;DHT22;10124;53.068;18.224;2023-01-28T07:13:23;-1.10;1.00
19924;DHT22;10124;53.068;18.224;2023-01-28T07:15:51;-1.10;1.00
19924;DHT22;10124;53.068;18.224;2023-01-28T07:18:19;-1.10;1.00
19924;DHT22;10124;53.068;18.224;2023-01-28T07:20:47;0.80;1.00
19924;DHT22;10124;53.068;18.224;2023-01-28T07:23:15;-1.00;1.00
19924;DHT22;10124;53.068;18.224;2023-01-28T07:25:42;-1.00;1.00
19924;DHT22;10124;53.068;18.224;2023-01-28T07:28:10;-0.80;1.00
19924;DHT22;10124;53.068;18.224;2023-01-28T07:30:38;-1.00;1.00
19924;DHT22;10124;53.068;18.224;2023-01-28T07:33:05;-0.90;1.00
19924;DHT22;10124;53.068;18.224;2023-01-28T07:35:34;-0.10;1.00
19924;DHT22;10124;53.068;18.224;2023-01-28T07:38:02;-0.80;1.00
19924;DHT22;10124;53.068;18.224;2023-01-28T07:40:30;-0.90;1.00
19924;DHT22;10124;53.068;18.224;2023-01-28T07:42:58;-0.90;1.00
19924;DHT22;10124;53.068;18.224;2023-01-28T07:45:26;0.80;1.00
19924;DHT22;10124;53.068;18.224;2023-01-28T07:47:58;-0.10;1.00
19924;DHT22;10124;53.068;18.224;2023-01-28T07:50:27;-0.70;1.00
19924;DHT22;10124;53.068;18.224;2023-01-28T07:52:56;-0.70;1.00
19924;DHT22;10124;53.068;18.224;2023-01-28T07:55:25;-0.80;1.00
19924;DHT22;10124;53.068;18.224;2023-01-28T07:57:58;-0.70;1.00
19924;DHT22;10124;53.068;18.224;2023-01-28T08:00:29;-0.70;1.00
19924;DHT22;10124;53.068;18.224;2023-01-28T08:03:00;-0.30;1.00
19924;DHT22;10124;53.068;18.224;2023-01-28T08:05:37;-0.70;1.00
19924;DHT22;10124;53.068;18.224;2023-01-28T08:08:09;-0.60;1.00
19924;DHT22;10124;53.068;18.224;2023-01-28T08:10:37;-0.60;1.00
19924;DHT22;10124;53.068;18.224;2023-01-28T08:13:05;1.50;1.00
19924;DHT22;10124;53.068;18.224;2023-01-28T08:15:33;0.10;1.00
19924;DHT22;10124;53.068;18.224;2023-01-28T08:18:03;-0.50;1.00
19924;DHT22;10124;53.068;18.224;2023-01-28T08:20:31;-0.40;1.00
19924;DHT22;10124;53.068;18.224;2023-01-28T08:25:40;-0.40;1.00
19924;DHT22;10124;53.068;18.224;2023-01-28T08:28:09;-0.30;1.00
19924;DHT22;10124;53.068;18.224;2023-01-28T08:30:38;-0.20;1.00
19924;DHT22;10124;53.068;18.224;2023-01-28T08:33:09;-0.30;1.00
19924;DHT22;10124;53.068;18.224;2023-01-28T08:35:37;0.10;1.00
19924;DHT22;10124;53.068;18.224;2023-01-28T08:38:06;-0.20;1.00
19924;DHT22;10124;53.068;18.224;2023-01-28T08:40:35;-0.10;1.00
19924;DHT22;10124;53.068;18.224;2023-01-28T08:43:04;1.10;1.00
19924;DHT22;10124;53.068;18.224;2023-01-28T08:45:31;0.00;1.00
19924;DHT22;10124;53.068;18.224;2023-01-28T08:48:04;-0.10;1.00
19924;DHT22;10124;53.068;18.224;2023-01-28T08:50:35;0.00;1.00
19924;DHT22;10124;53.068;18.224;2023-01-28T08:53:06;0.10;1.00
19924;DHT22;10124;53.068;18.224;2023-01-28T08:55:34;0.10;1.00
19924;DHT22;10124;53.068;18.224;2023-01-28T08:58:07;0.10;1.00
19924;DHT22;10124;53.068;18.224;2023-01-28T09:00:38;0.10;1.00
19924;DHT22;10124;53.068;18.224;2023-01-28T09:03:07;0.10;1.00
19924;DHT22;10124;53.068;18.224;2023-01-28T09:05:38;0.20;1.00
19924;DHT22;10124;53.068;18.224;2023-01-28T09:08:09;0.20;1.00
19924;DHT22;10124;53.068;18.224;2023-01-28T09:10:37;0.20;1.00
19924;DHT22;10124;53.068;18.224;2023-01-28T09:13:11;0.20;1.00
19924;DHT22;10124;53.068;18.224;2023-01-28T09:15:40;0.20;1.00
19924;DHT22;10124;53.068;18.224;2023-01-28T09:18:08;0.20;1.00
19924;DHT22;10124;53.068;18.224;2023-01-28T09:20:37;0.20;1.00
19924;DHT22;10124;53.068;18.224;2023-01-28T09:23:06;2.50;1.00
19924;DHT22;10124;53.068;18.224;2023-01-28T09:25:33;0.30;1.00
19924;DHT22;10124;53.068;18.224;2023-01-28T09:28:03;2.60;1.00
19924;DHT22;10124;53.068;18.224;2023-01-28T09:30:31;0.40;1.00
19924;DHT22;10124;53.068;18.224;2023-01-28T09:33:02;0.50;1.00
19924;DHT22;10124;53.068;18.224;2023-01-28T09:35:30;0.50;1.00
19924;DHT22;10124;53.068;18.224;2023-01-28T09:37:58;0.50;1.00
19924;DHT22;10124;53.068;18.224;2023-01-28T09:40:36;0.50;1.00
19924;DHT22;10124;53.068;18.224;2023-01-28T09:45:58;0.60;1.00
19924;DHT22;10124;53.068;18.224;2023-01-28T09:48:33;2.10;1.00
19924;DHT22;10124;53.068;18.224;2023-01-28T09:51:31;0.60;1.00
19924;DHT22;10124;53.068;18.224;2023-01-28T09:54:01;0.90;1.00
19924;DHT22;10124;53.068;18.224;2023-01-28T09:56:35;0.90;1.00
19924;DHT22;10124;53.068;18.224;2023-01-28T10:07:39;1.00;1.00
19924;DHT22;10124;53.068;18.224;2023-01-28T10:10:31;0.90;1.00
19924;DHT22;10124;53.068;18.224;2023-01-28T10:18:41;0.90;1.00
19924;DHT22;10124;53.068;18.224;2023-01-28T10:24:28;0.90;1.00
19924;DHT22;10124;53.068;18.224;2023-01-28T10:26:45;0.90;1.00
19924;DHT22;10124;53.068;18.224;2023-01-28T10:29:19;0.90;1.00
19924;DHT22;10124;53.068;18.224;2023-01-28T10:34:27;0.90;1.00
19924;DHT22;10124;53.068;18.224;2023-01-28T10:36:56;1.00;1.00
19924;DHT22;10124;53.068;18.224;2023-01-28T10:39:25;1.00;1.00
19924;DHT22;10124;53.068;18.224;2023-01-28T10:41:53;0.90;1.00
19924;DHT22;10124;53.068;18.224;2023-01-28T10:44:37;1.00;1.00
19924;DHT22;10124;53.068;18.224;2023-01-28T10:47:15;1.00;1.00
19924;DHT22;10124;53.068;18.224;2023-01-28T10:49:50;1.00;1.00
19924;DHT22;10124;53.068;18.224;2023-01-28T10:52:19;1.10;1.00
19924;DHT22;10124;53.068;18.224;2023-01-28T10:54:47;1.00;1.00
19924;DHT22;10124;53.068;18.224;2023-01-28T10:57:25;1.20;1.00
19924;DHT22;10124;53.068;18.224;2023-01-28T10:59:52;1.10;1.00
19924;DHT22;10124;53.068;18.224;2023-01-28T11:02:25;1.10;1.00
19924;DHT22;10124;53.068;18.224;2023-01-28T11:05:03;1.10;1.00
19924;DHT22;10124;53.068;18.224;2023-01-28T11:07:33;1.10;1.00
19924;DHT22;10124;53.068;18.224;2023-01-28T11:10:01;1.10;1.00
19924;DHT22;10124;53.068;18.224;2023-01-28T11:12:32;1.00;1.00
19924;DHT22;10124;53.068;18.224;2023-01-28T11:15:05;1.10;1.00
19924;DHT22;10124;53.068;18.224;2023-01-28T11:17:37;1.10;1.00
19924;DHT22;10124;53.068;18.224;2023-01-28T11:20:16;3.50;1.00
19924;DHT22;10124;53.068;18.224;2023-01-28T11:22:47;1.00;1.00
19924;DHT22;10124;53.068;18.224;2023-01-28T11:25:27;1.00;1.00
19924;DHT22;10124;53.068;18.224;2023-01-28T11:27:57;1.10;1.00
19924;DHT22;10124;53.068;18.224;2023-01-28T11:30:34;1.00;1.00
19924;DHT22;10124;53.068;18.224;2023-01-28T11:33:19;1.00;1.00
19924;DHT22;10124;53.068;18.224;2023-01-28T11:36:07;0.90;1.00
19924;DHT22;10124;53.068;18.224;2023-01-28T11:38:35;0.90;1.00
19924;DHT22;10124;53.068;18.224;2023-01-28T11:41:13;0.90;1.00
19924;DHT22;10124;53.068;18.224;2023-01-28T11:43:42;0.90;1.00
19924;DHT22;10124;53.068;18.224;2023-01-28T12:21:03;0.80;1.00
19924;DHT22;10124;53.068;18.224;2023-01-28T12:26:22;0.70;1.00
19924;DHT22;10124;53.068;18.224;2023-01-28T12:29:19;0.80;1.00
19924;DHT22;10124;53.068;18.224;2023-01-28T12:46:02;0.60;1.00
19924;DHT22;10124;53.068;18.224;2023-01-28T12:48:48;0.50;1.00
19924;DHT22;10124;53.068;18.224;2023-01-28T12:51:27;0.50;1.00
19924;DHT22;10124;53.068;18.224;2023-01-28T12:56:50;0.50;1.00
19924;DHT22;10124;53.068;18.224;2023-01-28T13:05:01;0.40;1.00
19924;DHT22;10124;53.068;18.224;2023-01-28T13:07:36;0.30;1.00
19924;DHT22;10124;53.068;18.224;2023-01-28T13:12:52;0.50;1.00
19924;DHT22;10124;53.068;18.224;2023-01-28T13:15:21;2.20;1.00
19924;DHT22;10124;53.068;18.224;2023-01-28T13:18:04;0.30;1.00
19924;DHT22;10124;53.068;18.224;2023-01-28T13:23:18;0.40;1.00
19924;DHT22;10124;53.068;18.224;2023-01-28T13:25:54;0.30;1.00
19924;DHT22;10124;53.068;18.224;2023-01-28T13:28:32;0.50;1.00
19924;DHT22;10124;53.068;18.224;2023-01-28T13:31:09;0.30;1.00
19924;DHT22;10124;53.068;18.224;2023-01-28T13:34:00;0.40;1.00
19924;DHT22;10124;53.068;18.224;2023-01-28T13:36:43;0.30;1.00
19924;DHT22;10124;53.068;18.224;2023-01-28T13:41:53;1.60;1.00
19924;DHT22;10124;53.068;18.224;2023-01-28T13:46:57;0.10;1.00
19924;DHT22;10124;53.068;18.224;2023-01-28T13:49:38;0.20;1.00
19924;DHT22;10124;53.068;18.224;2023-01-28T13:52:28;0.10;1.00
19924;DHT22;10124;53.068;18.224;2023-01-28T14:03:23;0.10;1.00
19924;DHT22;10124;53.068;18.224;2023-01-28T14:14:13;-0.20;1.00
19924;DHT22;10124;53.068;18.224;2023-01-28T14:19:43;-0.10;1.00
19924;DHT22;10124;53.068;18.224;2023-01-28T14:22:19;-0.10;1.00
19924;DHT22;10124;53.068;18.224;2023-01-28T14:24:48;-0.10;1.00
19924;DHT22;10124;53.068;18.224;2023-01-28T14:27:25;-0.10;1.00
19924;DHT22;10124;53.068;18.224;2023-01-28T14:32:47;-0.10;1.00
19924;DHT22;10124;53.068;18.224;2023-01-28T14:35:29;-0.10;1.00
19924;DHT22;10124;53.068;18.224;2023-01-28T14:38:00;-0.10;1.00
19924;DHT22;10124;53.068;18.224;2023-01-28T14:40:37;-0.20;1.00
19924;DHT22;10124;53.068;18.224;2023-01-28T14:43:08;-0.10;1.00
19924;DHT22;10124;53.068;18.224;2023-01-28T14:59:27;-0.10;1.00
19924;DHT22;10124;53.068;18.224;2023-01-28T15:01:58;-0.20;1.00
19924;DHT22;10124;53.068;18.224;2023-01-28T15:04:29;-0.10;1.00
19924;DHT22;10124;53.068;18.224;2023-01-28T15:07:23;1.40;1.00
19924;DHT22;10124;53.068;18.224;2023-01-28T15:10:02;-0.20;1.00
19924;DHT22;10124;53.068;18.224;2023-01-28T15:12:37;-0.20;1.00
19924;DHT22;10124;53.068;18.224;2023-01-28T15:15:25;-0.20;1.00
19924;DHT22;10124;53.068;18.224;2023-01-28T15:18:00;-0.30;1.00
19924;DHT22;10124;53.068;18.224;2023-01-28T15:20:31;-0.30;1.00
19924;DHT22;10124;53.068;18.224;2023-01-28T15:23:05;-0.30;1.00
19924;DHT22;10124;53.068;18.224;2023-01-28T15:25:35;-0.20;1.00
19924;DHT22;10124;53.068;18.224;2023-01-28T15:28:04;-0.10;1.00
19924;DHT22;10124;53.068;18.224;2023-01-28T15:30:32;-0.20;1.00
19924;DHT22;10124;53.068;18.224;2023-01-28T15:33:21;-0.20;1.00
19924;DHT22;10124;53.068;18.224;2023-01-28T15:35:51;-0.20;1.00
19924;DHT22;10124;53.068;18.224;2023-01-28T15:38:20;-0.40;1.00
19924;DHT22;10124;53.068;18.224;2023-01-28T15:40:54;-0.30;1.00
19924;DHT22;10124;53.068;18.224;2023-01-28T15:43:30;-0.30;1.00
19924;DHT22;10124;53.068;18.224;2023-01-28T15:45:58;-0.40;1.00
19924;DHT22;10124;53.068;18.224;2023-01-28T15:48:31;1.90;1.00
19924;DHT22;10124;53.068;18.224;2023-01-28T15:51:22;-0.50;1.00
19924;DHT22;10124;53.068;18.224;2023-01-28T15:53:57;-0.10;1.00
19924;DHT22;10124;53.068;18.224;2023-01-28T15:56:27;-0.60;1.00
19924;DHT22;10124;53.068;18.224;2023-01-28T15:59:06;-0.60;1.00
19924;DHT22;10124;53.068;18.224;2023-01-28T16:01:34;-0.60;1.00
19924;DHT22;10124;53.068;18.224;2023-01-28T16:04:04;-0.60;1.00
19924;DHT22;10124;53.068;18.224;2023-01-28T16:06:38;-0.70;1.00
19924;DHT22;10124;53.068;18.224;2023-01-28T16:09:27;-0.40;1.00
19924;DHT22;10124;53.068;18.224;2023-01-28T16:12:06;-0.70;1.00
19924;DHT22;10124;53.068;18.224;2023-01-28T16:14:48;-0.70;1.00
19924;DHT22;10124;53.068;18.224;2023-01-28T16:17:21;-0.80;1.00
19924;DHT22;10124;53.068;18.224;2023-01-28T16:20:00;-0.70;1.00
19924;DHT22;10124;53.068;18.224;2023-01-28T16:22:36;-0.70;1.00
19924;DHT22;10124;53.068;18.224;2023-01-28T16:25:25;-0.60;1.00
19924;DHT22;10124;53.068;18.224;2023-01-28T16:27:54;-0.70;1.00
19924;DHT22;10124;53.068;18.224;2023-01-28T16:30:25;-0.70;1.00
19924;DHT22;10124;53.068;18.224;2023-01-28T16:32:54;-0.70;1.00
19924;DHT22;10124;53.068;18.224;2023-01-28T16:35:27;-0.70;1.00
19924;DHT22;10124;53.068;18.224;2023-01-28T16:38:13;-0.60;1.00
19924;DHT22;10124;53.068;18.224;2023-01-28T16:40:46;1.30;1.00
19924;DHT22;10124;53.068;18.224;2023-01-28T16:43:16;-0.60;1.00
19924;DHT22;10124;53.068;18.224;2023-01-28T16:45:45;-0.60;1.00
19924;DHT22;10124;53.068;18.224;2023-01-28T16:48:14;-0.60;1.00
19924;DHT22;10124;53.068;18.224;2023-01-28T16:50:44;-0.70;1.00
19924;DHT22;10124;53.068;18.224;2023-01-28T16:53:19;-0.70;1.00
19924;DHT22;10124;53.068;18.224;2023-01-28T16:55:49;-0.80;1.00
19924;DHT22;10124;53.068;18.224;2023-01-28T16:58:23;-0.70;1.00
19924;DHT22;10124;53.068;18.224;2023-01-28T17:00:55;-0.80;1.00
19924;DHT22;10124;53.068;18.224;2023-01-28T17:03:25;-0.70;1.00
19924;DHT22;10124;53.068;18.224;2023-01-28T17:05:56;-0.80;1.00
19924;DHT22;10124;53.068;18.224;2023-01-28T17:08:28;-0.70;1.00
19924;DHT22;10124;53.068;18.224;2023-01-28T17:10:57;-0.70;1.00
19924;DHT22;10124;53.068;18.224;2023-01-28T17:13:28;-0.70;1.00
19924;DHT22;10124;53.068;18.224;2023-01-28T17:16:00;-0.70;1.00
19924;DHT22;10124;53.068;18.224;2023-01-28T17:18:30;-0.70;1.00
19924;DHT22;10124;53.068;18.224;2023-01-28T17:21:06;-0.70;1.00
19924;DHT22;10124;53.068;18.224;2023-01-28T17:23:38;-0.70;1.00
19924;DHT22;10124;53.068;18.224;2023-01-28T17:26:13;-0.60;1.00
19924;DHT22;10124;53.068;18.224;2023-01-28T17:28:52;-0.60;1.00
19924;DHT22;10124;53.068;18.224;2023-01-28T17:31:24;-0.60;1.00
19924;DHT22;10124;53.068;18.224;2023-01-28T17:33:54;-0.60;1.00
19924;DHT22;10124;53.068;18.224;2023-01-28T17:36:24;-0.70;1.00
19924;DHT22;10124;53.068;18.224;2023-01-28T17:38:53;-0.80;1.00
19924;DHT22;10124;53.068;18.224;2023-01-28T17:41:21;-0.80;1.00
19924;DHT22;10124;53.068;18.224;2023-01-28T17:43:50;-0.70;1.00
19924;DHT22;10124;53.068;18.224;2023-01-28T17:46:20;-0.70;1.00
19924;DHT22;10124;53.068;18.224;2023-01-28T17:48:48;-0.60;1.00
19924;DHT22;10124;53.068;18.224;2023-01-28T17:51:17;-0.70;1.00
19924;DHT22;10124;53.068;18.224;2023-01-28T17:53:46;-0.70;1.00
19924;DHT22;10124;53.068;18.224;2023-01-28T17:56:21;-0.70;1.00
19924;DHT22;10124;53.068;18.224;2023-01-28T17:59:08;-0.70;1.00
19924;DHT22;10124;53.068;18.224;2023-01-28T18:01:36;-0.60;1.00
19924;DHT22;10124;53.068;18.224;2023-01-28T18:04:04;-0.30;1.00
19924;DHT22;10124;53.068;18.224;2023-01-28T18:06:33;-0.60;1.00
19924;DHT22;10124;53.068;18.224;2023-01-28T18:09:03;-0.80;1.00
19924;DHT22;10124;53.068;18.224;2023-01-28T18:11:31;-0.60;1.00
19924;DHT22;10124;53.068;18.224;2023-01-28T18:14:00;-0.70;1.00
19924;DHT22;10124;53.068;18.224;2023-01-28T18:18:55;-1.00;1.00
19924;DHT22;10124;53.068;18.224;2023-01-28T18:21:32;-0.30;1.00
19924;DHT22;10124;53.068;18.224;2023-01-28T18:26:46;-0.60;1.00
19924;DHT22;10124;53.068;18.224;2023-01-28T18:29:14;-0.90;1.00
19924;DHT22;10124;53.068;18.224;2023-01-28T18:31:47;-0.60;1.00
19924;DHT22;10124;53.068;18.224;2023-01-28T18:34:16;-0.70;1.00
19924;DHT22;10124;53.068;18.224;2023-01-28T18:39:14;-1.20;1.00
19924;DHT22;10124;53.068;18.224;2023-01-28T18:41:42;-0.70;1.00
19924;DHT22;10124;53.068;18.224;2023-01-28T18:44:12;-0.70;1.00
19924;DHT22;10124;53.068;18.224;2023-01-28T18:49:09;-0.10;1.00
19924;DHT22;10124;53.068;18.224;2023-01-28T18:51:37;-0.90;1.00
19924;DHT22;10124;53.068;18.224;2023-01-28T18:54:05;-0.50;1.00